logo tempoitalia

Diretta Meteo Tuzla, Bosnia-Erzegovinalunedì 31 agosto ore 07:00

Mappa
Sereno 16 °C Sereno 24 Ore: T.min 15 T.max 33
Ponente Nord Km/h 0 Punto di rugiada: 16 °C Umidità: 100% Visibilità: 10 Km
Il sole sorge alle: 06:06 Il sole tramonta alle: 19:24
31 Agosto 2026 07:00 tempo osservato: Sereno Sereno 16 100 1015 vento: Nord N 0
31 Agosto 2026 06:30 tempo osservato: Sereno Sereno 15 100 1015 vento: Nord N 3.7
31 Agosto 2026 06:00 tempo osservato: Sereno Sereno 15 100 1015 vento: Nord N 0
31 Agosto 2026 05:30 tempo osservato: Sereno Sereno 15 100 1015 vento: Nord N 1.8
31 Agosto 2026 05:00 tempo osservato: Sereno Sereno 15 100 1015 vento: Nord N 0
31 Agosto 2026 04:30 tempo osservato: Sereno Sereno 16 100 1015 vento: Nord N 1.8
31 Agosto 2026 04:00 tempo osservato: Sereno Sereno 16 100 1015 vento: Nord N 1.8
31 Agosto 2026 03:30 tempo osservato: Sereno Sereno 16 100 1015 vento: Nord N 3.7
31 Agosto 2026 03:00 tempo osservato: Sereno Sereno 17 100 1016 vento: Nord N 3.7
31 Agosto 2026 02:30 tempo osservato: Sereno Sereno 17 100 1016 vento: Nord N 0
31 Agosto 2026 02:00 tempo osservato: Sereno Sereno 18 93 1016 vento: Nord N 0
31 Agosto 2026 01:30 tempo osservato: Sereno Sereno 18 93 1016 vento: Nord N 1.8
31 Agosto 2026 01:00 tempo osservato: Sereno Sereno 18 93 1016 vento: Nord N 0
31 Agosto 2026 00:30 tempo osservato: Sereno Sereno 20 82 1016 vento: Nord N 1.8
31 Agosto 2026 00:00 tempo osservato: Sereno Sereno 20 82 1016 vento: Nord N 3.7
30 Agosto 2026 23:30 tempo osservato: Sereno Sereno 20 82 1016 vento: Nord N 1.8
30 Agosto 2026 23:00 tempo osservato: Sereno Sereno 20 82 1016 vento: Nord N 3.7
30 Agosto 2026 22:30 tempo osservato: Sereno Sereno 21 77 1016 vento: Nord N 1.8
30 Agosto 2026 22:00 tempo osservato: Sereno Sereno 22 68 1016 vento: Nord N 0
30 Agosto 2026 21:30 tempo osservato: Sereno Sereno 23 64 1016 vento: Nord N 1.8
30 Agosto 2026 21:00 tempo osservato: Sereno Sereno 25 53 1016 vento: Nord N 1.8
30 Agosto 2026 20:30 tempo osservato: Sereno Sereno 25 53 1016 vento: Nord N 3.7
30 Agosto 2026 20:00 tempo osservato: Sereno Sereno 26 50 1015 vento: Nord N 3.7
30 Agosto 2026 19:30 tempo osservato: Sereno Sereno 29 39 1015 vento: Nord E/NE 7.4
30 Agosto 2026 19:00 tempo osservato: Sereno Sereno 30 37 1014 vento: Nord E 13
30 Agosto 2026 18:30 tempo osservato: Sereno Sereno 30 37 1014 vento: Nord E 14.8
30 Agosto 2026 18:00 tempo osservato: Sereno Sereno 31 35 1015 vento: Nord E/SE 14.8
30 Agosto 2026 17:30 tempo osservato: Sereno Sereno 32 35 1014 vento: Nord E/SE 14.8
30 Agosto 2026 17:00 tempo osservato: Sereno Sereno 33 31 1014 vento: Nord N 7.4
30 Agosto 2026 16:30 tempo osservato: Sereno Sereno 33 33 1014 vento: Nord N/NE 9.3
30 Agosto 2026 16:00 tempo osservato: Poco Nuvoloso Poco Nuvoloso 33 29 1015 vento: Nord N 9.3
30 Agosto 2026 15:30 tempo osservato: Poco Nuvoloso Poco Nuvoloso 33 24 1015 vento: Nord N 9.3
30 Agosto 2026 15:00 tempo osservato: Poco Nuvoloso Poco Nuvoloso 32 27 1015 vento: Nord N 9.3
30 Agosto 2026 14:30 tempo osservato: Poco Nuvoloso Poco Nuvoloso 32 31 1015 vento: Nord N 7.4
30 Agosto 2026 14:00 tempo osservato: Poco Nuvoloso Poco Nuvoloso 32 29 1016 vento: Nord O/NO 9.3
30 Agosto 2026 13:30 tempo osservato: Poco Nuvoloso Poco Nuvoloso 32 31 1016 vento: Nord N 5.5
30 Agosto 2026 13:00 tempo osservato: Poco Nuvoloso Poco Nuvoloso 31 35 1016 vento: Nord N 7.4
30 Agosto 2026 12:30 tempo osservato: Poco Nuvoloso Poco Nuvoloso 30 42 1017 vento: Nord N 9.3
30 Agosto 2026 12:00 tempo osservato: Poco Nuvoloso Poco Nuvoloso 29 48 1017 vento: Nord E 9.3
30 Agosto 2026 11:30 tempo osservato: Poco Nuvoloso Poco Nuvoloso 28 54 1017 vento: Nord N 9.3
30 Agosto 2026 11:00 tempo osservato: Sereno Sereno 27 61 1017 vento: Nord E 7.4
30 Agosto 2026 10:30 tempo osservato: Sereno Sereno 25 69 1018 vento: Nord N 3.7
30 Agosto 2026 10:00 tempo osservato: Sereno Sereno 24 73 1018 vento: Nord N 3.7
30 Agosto 2026 09:30 tempo osservato: Sereno Sereno 24 78 1018 vento: Nord N 3.7
30 Agosto 2026 09:00 tempo osservato: Poco Nuvoloso Poco Nuvoloso 20 100 1018 vento: Nord N 3.7
30 Agosto 2026 08:30 tempo osservato: Poco Nuvoloso Poco Nuvoloso 19 100 1018 vento: Nord N 3.7
30 Agosto 2026 08:00 tempo osservato: Foschia Foschia 18 100 1018 vento: Nord N 0